createdAt,value
2022-09-23T00:00:05.690Z,14.13
2022-09-23T00:05:53.597Z,15.77
2022-09-23T00:08:20.882Z,14.55
2022-09-23T00:11:19.568Z,11.05
2022-09-23T00:13:48.912Z,13.15
2022-09-23T00:16:19.617Z,12.13
2022-09-23T00:18:47.227Z,13.60
2022-09-23T00:21:14.734Z,9.55
2022-09-23T00:23:42.970Z,13.98
2022-09-23T00:26:12.862Z,15.10
2022-09-23T00:28:40.704Z,12.82
2022-09-23T00:31:11.342Z,11.50
2022-09-23T00:33:40.638Z,9.15
2022-09-23T00:36:11.148Z,10.95
2022-09-23T00:38:39.016Z,15.55
2022-09-23T00:41:06.554Z,13.38
2022-09-23T00:43:42.319Z,11.73
2022-09-23T00:46:12.238Z,13.18
2022-09-23T00:48:41.625Z,11.45
2022-09-23T00:51:10.500Z,12.98
2022-09-23T00:53:38.581Z,12.13
2022-09-23T00:56:10.242Z,8.40
2022-09-23T00:58:40.231Z,13.77
2022-09-23T01:01:07.825Z,10.60
2022-09-23T01:03:35.129Z,9.27
2022-09-23T01:06:02.415Z,10.20
2022-09-23T01:08:29.809Z,12.02
2022-09-23T01:11:01.126Z,9.68
2022-09-23T01:14:03.479Z,9.75
2022-09-23T01:16:34.207Z,9.40
2022-09-23T01:19:08.464Z,9.07
2022-09-23T01:21:52.032Z,10.20
2022-09-23T01:24:43.466Z,10.50
2022-09-23T01:27:29.506Z,9.60
2022-09-23T01:30:07.030Z,9.77
2022-09-23T01:32:52.758Z,9.80
2022-09-23T01:35:25.811Z,11.02
2022-09-23T01:37:55.875Z,8.15
2022-09-23T01:40:32.582Z,9.60
2022-09-23T01:43:28.302Z,13.05
2022-09-23T01:45:59.490Z,9.75
2022-09-23T01:48:32.147Z,11.30
2022-09-23T01:51:11.150Z,14.52
2022-09-23T01:53:50.514Z,12.30
2022-09-23T01:56:27.085Z,14.10
2022-09-23T01:59:36.379Z,11.68
2022-09-23T02:02:51.930Z,17.27
2022-09-23T02:05:26.038Z,10.32
2022-09-23T02:07:58.088Z,9.23
2022-09-23T02:10:29.450Z,7.88
2022-09-23T02:13:05.379Z,10.07
2022-09-23T02:15:35.762Z,11.00
2022-09-23T02:18:09.509Z,8.27
2022-09-23T02:20:39.598Z,10.18
2022-09-23T02:23:13.148Z,8.95
2022-09-23T02:25:47.103Z,10.45
2022-09-23T02:28:34.440Z,10.38
2022-09-23T02:31:11.989Z,10.40
2022-09-23T02:34:02.560Z,12.07
2022-09-23T02:36:38.012Z,10.93
2022-09-23T02:39:09.039Z,8.13
2022-09-23T02:42:02.886Z,13.68
2022-09-23T02:44:32.095Z,9.25
2022-09-23T02:46:59.603Z,11.05
2022-09-23T02:49:29.441Z,10.52
2022-09-23T02:51:58.033Z,8.77
2022-09-23T02:54:28.288Z,9.57
2022-09-23T02:59:23.497Z,10.52
2022-09-23T03:02:32.659Z,7.38
2022-09-23T03:05:09.094Z,8.02
2022-09-23T03:08:13.973Z,10.02
2022-09-23T03:11:05.617Z,9.75
2022-09-23T03:13:57.166Z,7.75
2022-09-23T03:16:34.839Z,9.23
2022-09-23T03:19:04.962Z,8.95
2022-09-23T03:21:37.133Z,9.73
2022-09-23T03:24:06.808Z,8.77
2022-09-23T03:26:36.186Z,9.07
2022-09-23T03:29:09.408Z,10.05
2022-09-23T03:31:37.680Z,9.70
2022-09-23T03:34:10.517Z,7.93
2022-09-23T03:36:53.793Z,7.53
2022-09-23T03:39:40.898Z,9.18
2022-09-23T03:42:24.571Z,7.20
2022-09-23T03:44:57.332Z,8.27
2022-09-23T03:47:29.052Z,12.10
2022-09-23T03:49:56.828Z,9.95
2022-09-23T03:52:25.498Z,6.88
2022-09-23T03:55:07.252Z,9.07
2022-09-23T03:57:34.460Z,8.73
2022-09-23T04:00:01.889Z,11.32
2022-09-23T04:02:39.120Z,9.85
2022-09-23T04:05:10.649Z,6.72
2022-09-23T04:07:37.907Z,10.25
2022-09-23T04:10:06.851Z,8.55
2022-09-23T04:12:34.420Z,10.25
2022-09-23T04:15:01.743Z,9.70
2022-09-23T04:17:28.964Z,9.73
2022-09-23T04:19:56.159Z,9.68
2022-09-23T04:22:23.492Z,6.15
2022-09-23T04:24:51.358Z,7.30
2022-09-23T04:27:18.533Z,9.55
2022-09-23T04:29:45.707Z,7.57
2022-09-23T04:32:13.052Z,9.13
2022-09-23T04:34:40.284Z,9.10
2022-09-23T04:37:07.538Z,10.32
2022-09-23T04:39:34.752Z,7.47
2022-09-23T04:42:01.942Z,7.35
2022-09-23T04:44:29.505Z,8.18
2022-09-23T04:46:56.817Z,7.95
2022-09-23T04:49:24.347Z,13.23
2022-09-23T04:51:51.652Z,10.68
2022-09-23T04:54:19.064Z,8.02
2022-09-23T04:56:46.362Z,9.27
2022-09-23T04:59:13.619Z,10.50
2022-09-23T05:01:41.623Z,9.82
2022-09-23T05:04:10.995Z,13.27
2022-09-23T05:06:38.295Z,10.63
2022-09-23T05:09:07.818Z,7.32
2022-09-23T05:11:35.327Z,8.68
2022-09-23T05:14:02.599Z,10.88
2022-09-23T05:16:29.973Z,10.02
2022-09-23T05:18:58.016Z,10.80
2022-09-23T05:21:28.355Z,8.80
2022-09-23T05:23:58.882Z,9.30
2022-09-23T05:26:29.073Z,6.65
2022-09-23T05:28:56.661Z,16.45
2022-09-23T05:31:26.221Z,13.00
2022-09-23T05:33:57.328Z,25.27
2022-09-23T05:36:25.726Z,43.67
2022-09-23T05:38:53.323Z,15.73
2022-09-23T05:41:25.288Z,11.65
2022-09-23T05:44:48.065Z,11.23
2022-09-23T05:47:13.657Z,16.30
2022-09-23T05:49:58.689Z,14.65
2022-09-23T05:52:26.657Z,13.85
2022-09-23T05:54:53.826Z,12.75
2022-09-23T05:57:21.522Z,9.38
2022-09-23T05:59:48.804Z,14.98
2022-09-23T06:02:16.236Z,11.63
2022-09-23T06:04:44.156Z,11.25
2022-09-23T06:07:11.852Z,17.23
2022-09-23T06:09:39.419Z,13.75
2022-09-23T06:12:07.132Z,12.93
2022-09-23T06:14:34.441Z,9.95
2022-09-23T06:17:01.985Z,10.80
2022-09-23T06:19:29.152Z,20.83
2022-09-23T06:21:56.363Z,12.18
2022-09-23T06:24:32.732Z,18.08
2022-09-23T06:27:00.984Z,25.17
2022-09-23T06:29:30.766Z,16.55
2022-09-23T06:31:59.733Z,24.48
2022-09-23T06:34:27.371Z,17.73
2022-09-23T06:36:55.570Z,18.02
2022-09-23T06:39:22.746Z,22.48
2022-09-23T06:41:51.055Z,20.60
2022-09-23T06:44:18.253Z,27.52
2022-09-23T06:46:45.518Z,27.67
2022-09-23T06:49:23.773Z,25.17
2022-09-23T06:51:51.106Z,16.58
2022-09-23T06:54:18.293Z,16.92
2022-09-23T06:56:47.740Z,25.02
2022-09-23T06:59:16.969Z,17.58
2022-09-23T07:01:45.499Z,16.53
2022-09-23T07:04:13.074Z,23.80
2022-09-23T07:06:40.815Z,20.48
2022-09-23T07:09:08.943Z,14.50
2022-09-23T07:11:36.235Z,121.32
2022-09-23T07:14:03.634Z,69.40
2022-09-23T07:16:32.994Z,45.88
2022-09-23T07:19:00.361Z,31.42
2022-09-23T07:21:27.938Z,57.95
2022-09-23T07:23:58.031Z,40.03
2022-09-23T07:28:56.847Z,118.72
2022-09-23T07:31:36.342Z,32.33
2022-09-23T07:34:07.607Z,31.70
2022-09-23T07:36:37.365Z,29.77
2022-09-23T07:39:05.142Z,26.02
2022-09-23T07:41:33.382Z,33.88
2022-09-23T07:44:01.547Z,17.58
2022-09-23T07:46:31.649Z,35.85
2022-09-23T07:48:59.246Z,24.30
2022-09-23T07:51:33.378Z,18.80
2022-09-23T07:54:03.361Z,24.98
2022-09-23T07:56:30.914Z,27.60
2022-09-23T07:59:01.002Z,24.83
2022-09-23T08:03:58.221Z,20.48
2022-09-23T08:06:25.543Z,33.95
2022-09-23T08:08:53.566Z,30.73
2022-09-23T08:11:21.114Z,24.63
2022-09-23T08:13:48.417Z,25.25
2022-09-23T08:16:15.754Z,29.52
2022-09-23T08:18:46.634Z,23.33
2022-09-23T08:21:19.896Z,18.23
2022-09-23T08:23:47.710Z,21.45
2022-09-23T08:26:20.916Z,23.92
2022-09-23T08:28:48.693Z,20.75
2022-09-23T08:31:16.053Z,29.60
2022-09-23T08:33:43.650Z,29.85
2022-09-23T08:36:11.334Z,15.13
2022-09-23T08:38:38.580Z,20.30
2022-09-23T08:41:22.838Z,29.08
2022-09-23T08:43:53.735Z,16.27
2022-09-23T08:46:28.097Z,19.63
2022-09-23T08:48:55.939Z,20.60
2022-09-23T08:51:31.664Z,28.52
2022-09-23T08:53:59.411Z,19.15
2022-09-23T08:56:28.823Z,23.83
2022-09-23T08:59:19.150Z,29.03
2022-09-23T09:01:48.947Z,32.75
2022-09-23T09:04:36.120Z,21.58
2022-09-23T09:07:24.566Z,22.92
2022-09-23T09:10:16.848Z,21.40
2022-09-23T09:12:54.414Z,20.30
2022-09-23T09:15:25.268Z,19.88
2022-09-23T09:18:09.125Z,29.85
2022-09-23T09:20:49.919Z,17.13
2022-09-23T09:23:31.969Z,23.00
2022-09-23T09:26:01.717Z,25.27
2022-09-23T09:28:51.202Z,25.10
2022-09-23T09:31:42.662Z,27.60
2022-09-23T09:34:40.708Z,18.80
2022-09-23T09:37:16.015Z,32.80
2022-09-23T09:39:43.516Z,26.73
2022-09-23T09:42:20.326Z,34.08
2022-09-23T09:44:58.573Z,27.42
2022-09-23T09:47:34.929Z,21.35
2022-09-23T09:50:21.472Z,21.85
2022-09-23T09:52:49.034Z,29.17
2022-09-23T09:55:25.375Z,29.35
2022-09-23T09:58:01.689Z,23.70
2022-09-23T10:00:29.168Z,36.25
2022-09-23T10:03:01.803Z,27.73
2022-09-23T10:05:34.852Z,29.60
2022-09-23T10:08:20.762Z,22.10
2022-09-23T10:11:15.420Z,44.30
2022-09-23T10:14:01.558Z,21.67
2022-09-23T10:16:34.224Z,12.40
2022-09-23T10:19:16.127Z,24.15
2022-09-23T10:21:43.652Z,15.75
2022-09-23T10:24:23.573Z,15.65
2022-09-23T10:26:58.712Z,19.27
2022-09-23T10:29:30.858Z,24.40
2022-09-23T10:32:18.600Z,20.35
2022-09-23T10:34:49.517Z,14.35
2022-09-23T10:37:30.680Z,17.40
2022-09-23T10:40:17.327Z,22.10
2022-09-23T10:43:15.832Z,19.65
2022-09-23T10:46:09.266Z,30.52
2022-09-23T10:48:48.963Z,15.25
2022-09-23T10:51:27.376Z,17.67
2022-09-23T10:54:09.792Z,18.92
2022-09-23T10:56:43.442Z,11.07
2022-09-23T10:59:43.455Z,18.52
2022-09-23T11:02:53.744Z,15.85
2022-09-23T11:08:06.153Z,14.02
2022-09-23T11:10:48.565Z,18.27
2022-09-23T11:13:42.762Z,17.70
2022-09-23T11:17:04.234Z,16.27
2022-09-23T11:19:57.740Z,14.43
2022-09-23T11:22:24.820Z,9.98
2022-09-23T11:25:05.253Z,13.45
2022-09-23T11:27:54.282Z,17.10
2022-09-23T11:30:21.509Z,15.20
2022-09-23T11:33:14.061Z,14.30
2022-09-23T11:36:21.411Z,15.23
2022-09-23T11:38:50.107Z,24.58
2022-09-23T11:41:19.554Z,27.20
2022-09-23T11:43:52.253Z,16.30
2022-09-23T11:46:25.605Z,18.85
2022-09-23T11:49:08.248Z,22.23
2022-09-23T11:51:45.628Z,13.65
2022-09-23T11:54:36.231Z,29.15
2022-09-23T11:57:06.820Z,34.88
2022-09-23T11:59:49.956Z,35.30
2022-09-23T12:02:21.238Z,38.25
2022-09-23T12:04:58.617Z,19.00
2022-09-23T12:07:40.812Z,20.38
2022-09-23T12:10:09.291Z,15.95
2022-09-23T12:12:57.408Z,15.32
2022-09-23T12:15:37.437Z,15.70
2022-09-23T12:18:29.042Z,14.02
2022-09-23T12:21:08.474Z,16.20
2022-09-23T12:23:59.236Z,20.20
2022-09-23T12:26:27.648Z,19.05
2022-09-23T12:29:00.773Z,27.48
2022-09-23T12:31:33.081Z,16.63
2022-09-23T12:34:07.722Z,24.05
2022-09-23T12:36:35.981Z,27.38
2022-09-23T12:39:18.022Z,19.85
2022-09-23T12:41:50.712Z,16.67
2022-09-23T12:44:28.782Z,12.93
2022-09-23T12:47:14.248Z,14.60
2022-09-23T12:49:42.850Z,13.15
2022-09-23T12:52:16.077Z,13.93
2022-09-23T12:54:45.164Z,13.15
2022-09-23T12:57:12.993Z,16.90
2022-09-23T13:00:00.443Z,15.93
2022-09-23T13:02:31.543Z,8.75
2022-09-23T13:05:26.870Z,9.52
2022-09-23T13:08:05.623Z,11.18
2022-09-23T13:10:38.669Z,8.23
2022-09-23T13:13:06.368Z,9.85
2022-09-23T13:15:35.440Z,12.32
2022-09-23T13:18:21.133Z,9.45
2022-09-23T13:20:49.937Z,9.10
2022-09-23T13:23:31.311Z,7.25
2022-09-23T13:26:01.099Z,12.50
2022-09-23T13:28:37.054Z,16.20
2022-09-23T13:31:06.189Z,9.93
2022-09-23T13:33:53.188Z,9.77
2022-09-23T13:36:21.150Z,13.07
2022-09-23T13:38:48.736Z,14.10
2022-09-23T13:41:16.847Z,9.02
2022-09-23T13:43:49.775Z,14.27
2022-09-23T13:46:24.498Z,10.25
2022-09-23T13:48:56.032Z,7.85
2022-09-23T13:51:30.215Z,11.98
2022-09-23T13:53:59.369Z,6.05
2022-09-23T13:56:29.435Z,8.13
2022-09-23T13:59:20.643Z,9.50
2022-09-23T14:01:48.052Z,13.85
2022-09-23T14:04:25.330Z,9.77
2022-09-23T14:06:53.871Z,8.27
2022-09-23T14:09:24.757Z,9.73
2022-09-23T14:11:52.198Z,6.35
2022-09-23T14:14:19.665Z,16.02
2022-09-23T14:16:49.649Z,10.18
2022-09-23T14:19:18.837Z,10.93
2022-09-23T14:21:51.297Z,11.52
2022-09-23T14:24:34.584Z,23.42
2022-09-23T14:27:15.741Z,8.07
2022-09-23T14:29:44.932Z,10.50
2022-09-23T14:32:15.699Z,18.10
2022-09-23T14:34:44.195Z,11.95
2022-09-23T14:38:08.460Z,14.15
2022-09-23T14:40:50.805Z,12.80
2022-09-23T14:43:24.278Z,11.45
2022-09-23T14:45:57.367Z,11.27
2022-09-23T14:48:29.536Z,15.30
2022-09-23T14:51:01.915Z,18.88
2022-09-23T14:53:31.388Z,18.40
2022-09-23T14:56:07.950Z,27.40
2022-09-23T14:58:52.697Z,13.23
2022-09-23T15:01:35.590Z,13.45
2022-09-23T15:04:16.361Z,19.85
2022-09-23T15:07:14.440Z,9.73
2022-09-23T15:09:42.297Z,12.95
2022-09-23T15:12:18.919Z,8.88
2022-09-23T15:14:52.365Z,9.48
2022-09-23T15:17:22.707Z,11.05
2022-09-23T15:19:52.718Z,7.53
2022-09-23T15:22:21.057Z,7.47
2022-09-23T15:24:48.561Z,9.07
2022-09-23T15:27:32.244Z,10.13
2022-09-23T15:30:19.177Z,7.68
2022-09-23T15:32:46.924Z,5.45
2022-09-23T15:35:19.299Z,8.30
2022-09-23T15:37:48.764Z,11.57
2022-09-23T15:40:27.544Z,8.30
2022-09-23T15:42:59.774Z,11.85
2022-09-23T15:45:36.796Z,10.07
2022-09-23T15:48:11.264Z,7.78
2022-09-23T15:50:39.328Z,8.38
2022-09-23T15:53:07.037Z,8.70
2022-09-23T15:55:34.210Z,6.22
2022-09-23T15:58:01.448Z,11.43
2022-09-23T16:00:28.758Z,6.95
2022-09-23T16:02:56.450Z,11.55
2022-09-23T16:05:33.435Z,5.50
2022-09-23T16:08:03.795Z,7.47
2022-09-23T16:10:36.063Z,5.28
2022-09-23T16:13:04.918Z,8.65
2022-09-23T16:15:32.709Z,7.55
2022-09-23T16:18:00.569Z,7.60
2022-09-23T16:20:29.840Z,8.20
2022-09-23T16:23:00.264Z,13.33
2022-09-23T16:25:31.583Z,8.65
2022-09-23T16:27:58.797Z,5.32
2022-09-23T16:30:27.646Z,13.00
2022-09-23T16:32:55.731Z,15.57
2022-09-23T16:35:25.499Z,9.52
2022-09-23T16:37:53.136Z,7.45
2022-09-23T16:40:22.281Z,7.22
2022-09-23T16:42:52.337Z,10.35
2022-09-23T16:45:23.094Z,10.82
2022-09-23T16:47:51.848Z,7.53
2022-09-23T16:50:22.626Z,7.60
2022-09-23T16:52:56.250Z,6.20
2022-09-23T16:55:25.762Z,9.88
2022-09-23T16:57:54.078Z,9.05
2022-09-23T17:00:40.666Z,9.00
2022-09-23T17:03:26.646Z,8.30
2022-09-23T17:05:54.222Z,8.13
2022-09-23T17:08:21.828Z,8.90
2022-09-23T17:10:57.079Z,7.13
2022-09-23T17:13:26.038Z,7.60
2022-09-23T17:15:53.697Z,11.57
2022-09-23T17:18:21.681Z,5.07
2022-09-23T17:20:59.386Z,8.00
2022-09-23T17:23:27.354Z,8.07
2022-09-23T17:25:54.818Z,11.98
2022-09-23T17:28:22.239Z,8.70
2022-09-23T17:30:59.488Z,8.77
2022-09-23T17:33:28.300Z,5.28
2022-09-23T17:35:56.878Z,12.02
2022-09-23T17:38:28.723Z,7.55
2022-09-23T17:40:59.039Z,9.30
2022-09-23T17:43:27.131Z,6.38
2022-09-23T17:45:57.063Z,10.00
2022-09-23T17:48:25.557Z,6.30
2022-09-23T17:51:04.155Z,11.15
2022-09-23T17:53:32.970Z,6.90
2022-09-23T17:56:04.130Z,10.50
2022-09-23T17:58:34.002Z,8.93
2022-09-23T18:01:01.730Z,8.55
2022-09-23T18:03:30.619Z,12.95
2022-09-23T18:06:08.836Z,7.75
2022-09-23T18:08:36.054Z,10.77
2022-09-23T18:11:12.060Z,10.25
2022-09-23T18:13:39.224Z,10.75
2022-09-23T18:16:06.910Z,8.75
2022-09-23T18:18:34.214Z,7.82
2022-09-23T18:21:02.698Z,8.57
2022-09-23T18:23:29.989Z,13.52
2022-09-23T18:25:57.197Z,13.68
2022-09-23T18:28:24.572Z,9.18
2022-09-23T18:30:56.333Z,10.68
2022-09-23T18:33:24.258Z,10.80
2022-09-23T18:35:54.206Z,16.67
2022-09-23T18:38:21.472Z,11.95
2022-09-23T18:40:55.858Z,9.63
2022-09-23T18:43:25.850Z,14.45
2022-09-23T18:48:48.563Z,9.45
2022-09-23T18:51:16.726Z,9.60
2022-09-23T18:53:46.217Z,10.48
2022-09-23T18:56:15.845Z,12.07
2022-09-23T18:58:51.514Z,12.32
2022-09-23T19:01:20.253Z,11.98
2022-09-23T19:03:47.644Z,13.43
2022-09-23T19:06:21.065Z,18.20
2022-09-23T19:08:53.024Z,12.82
2022-09-23T19:11:20.915Z,9.45
2022-09-23T19:13:56.338Z,12.07
2022-09-23T19:16:24.050Z,15.25
2022-09-23T19:18:51.794Z,12.10
2022-09-23T19:21:21.389Z,13.05
2022-09-23T19:23:53.436Z,13.73
2022-09-23T19:26:23.417Z,12.55
2022-09-23T19:28:52.506Z,14.02
2022-09-23T19:31:23.070Z,10.13
2022-09-23T19:33:56.469Z,10.38
2022-09-23T19:36:25.608Z,8.63
2022-09-23T19:38:54.331Z,11.73
2022-09-23T19:41:21.615Z,12.45
2022-09-23T19:43:49.130Z,12.18
2022-09-23T19:46:16.397Z,14.45
2022-09-23T19:48:47.121Z,12.23
2022-09-23T19:51:15.462Z,11.88
2022-09-23T19:53:43.437Z,14.32
2022-09-23T19:56:14.273Z,12.07
2022-09-23T19:58:43.048Z,11.38
2022-09-23T20:01:11.293Z,10.93
2022-09-23T20:03:39.811Z,13.63
2022-09-23T20:06:11.814Z,11.32
2022-09-23T20:08:40.056Z,10.93
2022-09-23T20:11:13.820Z,14.00
2022-09-23T20:13:46.942Z,12.15
2022-09-23T20:16:20.613Z,15.07
2022-09-23T20:19:03.991Z,12.57
2022-09-23T20:24:04.697Z,13.20
2022-09-23T20:26:50.827Z,9.57
2022-09-23T20:29:21.202Z,15.18
2022-09-23T20:31:56.985Z,10.73
2022-09-23T20:34:24.521Z,9.10
2022-09-23T20:36:52.511Z,9.98
2022-09-23T20:39:20.442Z,9.18
2022-09-23T20:41:49.336Z,9.40
2022-09-23T20:44:17.222Z,10.77
2022-09-23T20:46:48.473Z,11.02
2022-09-23T20:49:17.288Z,13.80
2022-09-23T20:51:48.057Z,9.20
2022-09-23T20:54:18.937Z,10.70
2022-09-23T20:56:47.007Z,13.73
2022-09-23T20:59:18.233Z,12.02
2022-09-23T21:01:47.590Z,8.00
2022-09-23T21:04:17.838Z,10.48
2022-09-23T21:06:45.248Z,9.98
2022-09-23T21:09:12.587Z,12.70
2022-09-23T21:11:41.911Z,8.75
2022-09-23T21:14:09.650Z,11.27
2022-09-23T21:16:40.100Z,8.20
2022-09-23T21:19:08.226Z,10.32
2022-09-23T21:21:36.107Z,11.35
2022-09-23T21:24:31.257Z,11.05
2022-09-23T21:26:52.039Z,11.02
2022-09-23T21:29:20.838Z,12.20
2022-09-23T21:31:49.820Z,11.13
2022-09-23T21:34:17.591Z,16.92
2022-09-23T21:36:48.027Z,11.60
2022-09-23T21:39:16.642Z,10.32
2022-09-23T21:41:44.177Z,11.40
2022-09-23T21:44:12.918Z,8.07
2022-09-23T21:46:40.302Z,12.27
2022-09-23T21:49:09.497Z,9.77
2022-09-23T21:51:40.790Z,12.32
2022-09-23T21:54:15.996Z,10.95
2022-09-23T21:56:44.194Z,11.13
2022-09-23T21:59:11.895Z,10.48
2022-09-23T22:01:53.971Z,10.75
2022-09-23T22:04:22.411Z,7.43
2022-09-23T22:06:53.972Z,11.73
2022-09-23T22:09:21.818Z,9.30
2022-09-23T22:12:13.986Z,8.65
2022-09-23T22:14:43.037Z,9.02
2022-09-23T22:17:12.214Z,10.10
2022-09-23T22:19:45.931Z,9.65
2022-09-23T22:22:18.693Z,14.23
2022-09-23T22:24:49.768Z,9.73
2022-09-23T22:27:19.765Z,12.57
2022-09-23T22:30:06.077Z,10.73
2022-09-23T22:32:40.847Z,10.68
2022-09-23T22:35:10.481Z,9.75
2022-09-23T22:37:38.206Z,12.65
2022-09-23T22:40:08.433Z,11.18
2022-09-23T22:42:36.486Z,10.77
2022-09-23T22:45:05.802Z,11.52
2022-09-23T22:47:37.680Z,10.35
2022-09-23T22:50:06.217Z,10.75
2022-09-23T22:52:33.613Z,10.32
2022-09-23T22:55:01.118Z,8.90
2022-09-23T22:57:28.398Z,10.38
2022-09-23T22:59:55.595Z,10.13
2022-09-23T23:02:23.686Z,8.93
2022-09-23T23:04:51.107Z,8.52
2022-09-23T23:07:23.122Z,9.68
2022-09-23T23:09:50.951Z,10.50
2022-09-23T23:12:20.159Z,11.13
2022-09-23T23:14:48.622Z,10.57
2022-09-23T23:17:15.975Z,8.75
2022-09-23T23:19:43.308Z,11.35
2022-09-23T23:22:10.559Z,10.40
2022-09-23T23:24:37.784Z,9.57
2022-09-23T23:27:04.992Z,9.95
2022-09-23T23:29:32.351Z,9.27
2022-09-23T23:31:59.544Z,9.80
2022-09-23T23:34:27.184Z,11.15
2022-09-23T23:36:55.075Z,12.30
2022-09-23T23:39:24.932Z,11.55
2022-09-23T23:41:54.928Z,10.05
2022-09-23T23:44:24.614Z,12.88
2022-09-23T23:46:52.410Z,13.02
2022-09-23T23:49:19.855Z,10.63
2022-09-23T23:51:47.855Z,9.93
2022-09-23T23:54:15.449Z,11.13
2022-09-23T23:56:43.249Z,9.80
2022-09-23T23:59:11.307Z,13.45
